Time;durP1;ratioP1;P1;durP2;ratioP2;P2;SDS_P1;SDS_P2;PMS_P1;PMS_P2;Temp;Humidity;BMP_temperature;BMP_pressure;BME280_temperature;BME280_humidity;BME280_pressure;Samples;Min_cycle;Max_cycle;Signal;HPM_P1;HPM_P2
2022/11/29 00:02:18;;;;;;;0.77;0.30;;;24.00;48.10;;;;;;5054240;28;20202;-51
2022/11/29 00:04:49;;;;;;;1.40;0.50;;;24.10;48.20;;;;;;5053986;28;20222;-52
2022/11/29 00:07:20;;;;;;;1.02;0.50;;;24.10;48.00;;;;;;5049585;28;20277;-51
2022/11/29 00:09:51;;;;;;;0.40;0.30;;;24.10;47.90;;;;;;5048227;28;20286;-53
2022/11/29 00:12:21;;;;;;;0.93;0.40;;;24.20;47.90;;;;;;5053353;28;20206;-52
2022/11/29 00:14:54;;;;;;;0.88;0.30;;;24.20;47.80;;;;;;5053136;28;20231;-56
2022/11/29 00:17:25;;;;;;;0.73;0.30;;;24.20;47.70;;;;;;5053293;28;20196;-58
2022/11/29 00:19:55;;;;;;;0.40;0.40;;;24.30;47.70;;;;;;5053553;28;20210;-51
2022/11/29 00:22:26;;;;;;;0.30;0.30;;;24.30;47.70;;;;;;5053518;28;20198;-50
2022/11/29 00:24:57;;;;;;;0.38;0.38;;;24.30;47.70;;;;;;5052349;28;20219;-54
2022/11/29 00:27:27;;;;;;;0.55;0.30;;;24.40;47.70;;;;;;5069963;28;20577;-51
2022/11/29 00:30:00;;;;;;;0.30;0.25;;;24.40;47.70;;;;;;5063988;28;20206;-53
2022/11/29 00:32:32;;;;;;;0.70;0.30;;;24.40;47.60;;;;;;5053729;28;20282;-57
2022/11/29 00:35:03;;;;;;;2.10;0.40;;;24.40;47.50;;;;;;5053735;28;20238;-49
2022/11/29 00:37:34;;;;;;;1.35;0.50;;;24.40;47.40;;;;;;5052727;28;20496;-55
2022/11/29 00:40:04;;;;;;;1.50;0.30;;;24.50;47.50;;;;;;5069481;28;20666;-48
2022/11/29 00:42:35;;;;;;;0.73;0.28;;;24.50;47.60;;;;;;5073497;28;20205;-52
2022/11/29 00:45:09;;;;;;;0.73;0.20;;;24.50;47.50;;;;;;5072778;28;20698;-51
2022/11/29 00:47:39;;;;;;;0.30;0.20;;;24.50;47.50;;;;;;5072875;28;20205;-53
2022/11/29 00:50:11;;;;;;;1.05;0.70;;;24.50;47.40;;;;;;5057600;28;20408;-51
2022/11/29 00:52:42;;;;;;;0.77;0.40;;;24.50;47.40;;;;;;5053465;28;20195;-50
2022/11/29 00:55:13;;;;;;;0.98;0.30;;;24.60;47.40;;;;;;5053010;28;20228;-53
2022/11/29 00:57:44;;;;;;;0.98;0.35;;;24.60;47.40;;;;;;5053217;28;20207;-48
2022/11/29 01:00:17;;;;;;;0.43;0.30;;;24.60;47.40;;;;;;5052203;28;20199;-48
2022/11/29 01:02:48;;;;;;;0.30;0.30;;;24.60;47.40;;;;;;5052578;28;20195;-49
2022/11/29 01:05:18;;;;;;;0.47;0.30;;;24.60;47.40;;;;;;5068068;28;20582;-52
2022/11/29 01:07:49;;;;;;;2.00;0.40;;;24.70;47.30;;;;;;5064313;28;20206;-54
2022/11/29 01:10:23;;;;;;;0.32;0.30;;;24.70;47.10;;;;;;5052880;28;20192;-51
2022/11/29 01:12:54;;;;;;;0.45;0.20;;;24.70;47.00;;;;;;5052307;28;20199;-52
2022/11/29 01:15:26;;;;;;;0.73;0.47;;;24.70;47.10;;;;;;5053602;28;20230;-53
2022/11/29 01:17:57;;;;;;;0.30;0.30;;;24.70;47.20;;;;;;5052926;28;20196;-52
2022/11/29 01:20:28;;;;;;;0.77;0.22;;;24.70;47.30;;;;;;5053036;28;20187;-50
2022/11/29 01:22:58;;;;;;;1.05;0.52;;;24.70;47.30;;;;;;5052103;28;20187;-54
2022/11/29 01:25:30;;;;;;;1.00;0.30;;;24.70;47.20;;;;;;5052542;28;20198;-52
2022/11/29 01:28:01;;;;;;;1.13;0.60;;;24.70;47.00;;;;;;5051727;28;20216;-48
2022/11/29 01:30:34;;;;;;;1.08;0.50;;;24.70;46.90;;;;;;5052457;28;20195;-50
2022/11/29 01:33:04;;;;;;;0.77;0.38;;;24.70;46.70;;;;;;5063934;28;20440;-49
2022/11/29 01:35:35;;;;;;;0.47;0.30;;;24.70;46.70;;;;;;5053266;28;20690;-50
2022/11/29 01:38:06;;;;;;;0.88;0.40;;;24.80;46.90;;;;;;5052075;28;20188;-52
2022/11/29 01:40:37;;;;;;;0.57;0.40;;;24.80;46.90;;;;;;5067749;28;20187;-49
2022/11/29 01:43:19;;;;;;;0.55;0.40;;;24.80;46.80;;;;;;5071754;28;20206;-49
2022/11/29 01:45:53;;;;;;;0.63;0.30;;;24.80;46.70;;;;;;5071788;28;20221;-50
2022/11/29 01:48:26;;;;;;;2.03;0.60;;;24.80;46.60;;;;;;5071853;28;20197;-48
2022/11/29 01:50:59;;;;;;;1.00;0.45;;;24.80;46.70;;;;;;5071337;28;20205;-49
2022/11/29 01:53:30;;;;;;;0.38;0.30;;;24.90;46.80;;;;;;5071223;28;20219;-48
2022/11/29 01:56:05;;;;;;;0.50;0.30;;;24.90;46.90;;;;;;5071497;28;20739;-48
2022/11/29 01:58:36;;;;;;;0.73;0.40;;;24.90;46.90;;;;;;5071375;28;20202;-48
2022/11/29 02:01:09;;;;;;;1.40;0.38;;;24.90;47.00;;;;;;5052967;28;20195;-53
2022/11/29 02:03:40;;;;;;;0.75;0.40;;;24.90;46.90;;;;;;5050765;28;20683;-64
2022/11/29 02:06:11;;;;;;;0.75;0.35;;;25.00;47.00;;;;;;5052409;28;20184;-55
2022/11/29 02:08:42;;;;;;;0.60;0.40;;;25.00;46.90;;;;;;5051099;28;20199;-51
2022/11/29 02:11:46;;;;;;;1.25;0.47;;;25.00;46.90;;;;;;5071332;28;20209;-51
2022/11/29 02:14:31;;;;;;;0.82;0.40;;;25.10;46.90;;;;;;5070343;28;20293;-57
2022/11/29 02:17:12;;;;;;;1.10;0.35;;;25.10;46.90;;;;;;5071510;28;20206;-54
2022/11/29 02:20:12;;;;;;;0.85;0.40;;;25.10;46.90;;;;;;5071257;28;20191;-55
2022/11/29 02:22:50;;;;;;;0.70;0.50;;;25.10;46.90;;;;;;5071390;28;20201;-56
2022/11/29 02:25:41;;;;;;;0.80;0.43;;;25.20;47.00;;;;;;5070693;28;20622;-52
2022/11/29 02:28:51;;;;;;;0.57;0.45;;;25.20;46.90;;;;;;5071608;28;20210;-52
2022/11/29 02:31:56;;;;;;;1.00;0.70;;;25.20;46.90;;;;;;5050506;28;20241;-58
2022/11/29 02:34:59;;;;;;;1.67;0.77;;;25.30;47.00;;;;;;5037344;28;20214;-55
2022/11/29 02:37:53;;;;;;;1.60;0.60;;;25.30;47.00;;;;;;5047443;28;20199;-53
2022/11/29 02:40:40;;;;;;;1.25;0.65;;;25.30;46.90;;;;;;5051383;28;20203;-56
2022/11/29 02:43:28;;;;;;;1.02;0.55;;;25.40;46.70;;;;;;5049539;28;20195;-54
2022/11/29 02:46:25;;;;;;;1.45;0.60;;;25.40;46.50;;;;;;5046669;28;20207;-52
2022/11/29 02:49:04;;;;;;;1.50;0.63;;;25.40;46.40;;;;;;5050639;28;20242;-56
2022/11/29 02:51:44;;;;;;;2.05;0.65;;;25.50;46.40;;;;;;5071245;28;20213;-52
2022/11/29 02:54:22;;;;;;;1.05;0.73;;;25.50;46.40;;;;;;5070073;28;20578;-58
2022/11/29 02:56:58;;;;;;;0.98;0.65;;;25.60;46.50;;;;;;5071325;28;20194;-55
2022/11/29 02:59:46;;;;;;;2.88;0.60;;;25.60;46.60;;;;;;5065500;28;20202;-56
2022/11/29 03:02:27;;;;;;;2.00;0.80;;;25.60;46.40;;;;;;5066451;28;20191;-56
2022/11/29 03:05:04;;;;;;;1.38;0.80;;;25.60;46.40;;;;;;5071154;28;20501;-52
2022/11/29 03:07:48;;;;;;;1.65;0.80;;;25.60;46.50;;;;;;5065453;28;20191;-52
2022/11/29 03:10:29;;;;;;;1.67;0.80;;;25.70;46.40;;;;;;5051401;28;20202;-53
2022/11/29 03:13:03;;;;;;;1.83;0.70;;;25.70;46.50;;;;;;5050765;28;20202;-52
2022/11/29 03:15:40;;;;;;;2.55;0.90;;;25.70;46.60;;;;;;5050654;28;20231;-51
2022/11/29 03:18:29;;;;;;;2.80;0.90;;;25.80;46.50;;;;;;5050983;28;20199;-55
2022/11/29 03:21:11;;;;;;;2.78;0.70;;;25.80;46.20;;;;;;5050881;28;20199;-53
2022/11/29 03:23:49;;;;;;;2.92;0.98;;;25.80;45.90;;;;;;5050286;28;20226;-52
2022/11/29 03:26:25;;;;;;;1.60;0.80;;;25.90;45.70;;;;;;5055791;28;20191;-53
2022/11/29 03:29:06;;;;;;;2.10;0.80;;;25.90;45.70;;;;;;5070077;28;20198;-59
2022/11/29 03:31:40;;;;;;;2.28;0.93;;;25.90;45.70;;;;;;5051000;28;20626;-56
2022/11/29 03:34:19;;;;;;;1.35;0.80;;;25.90;45.60;;;;;;5050717;28;20227;-55
2022/11/29 03:36:59;;;;;;;3.45;1.00;;;26.00;45.80;;;;;;5050679;28;20223;-52
2022/11/29 03:39:49;;;;;;;3.13;0.80;;;26.00;45.70;;;;;;5050449;28;20191;-51
2022/11/29 03:42:26;;;;;;;1.45;0.80;;;26.00;45.30;;;;;;5051178;28;20195;-54
2022/11/29 03:45:01;;;;;;;1.90;0.77;;;26.00;45.20;;;;;;5050890;28;20211;-56
2022/11/29 03:47:35;;;;;;;1.58;0.65;;;26.10;44.80;;;;;;5050742;28;20195;-55
2022/11/29 03:50:11;;;;;;;2.00;0.98;;;26.10;44.60;;;;;;5050470;28;20206;-52
2022/11/29 03:52:49;;;;;;;1.33;0.70;;;26.10;45.10;;;;;;5050673;28;20199;-52
2022/11/29 03:55:35;;;;;;;1.63;0.70;;;26.10;45.30;;;;;;5050092;28;20679;-53
2022/11/29 03:58:19;;;;;;;1.77;0.80;;;26.10;45.40;;;;;;5050372;28;20204;-52
2022/11/29 04:01:09;;;;;;;2.97;0.80;;;26.10;45.40;;;;;;5054311;28;20484;-54
2022/11/29 04:04:26;;;;;;;2.45;0.90;;;26.20;45.40;;;;;;5054658;28;20215;-55
2022/11/29 04:07:07;;;;;;;2.28;0.80;;;26.20;45.20;;;;;;4973300;28;20666;-54
2022/11/29 04:09:54;;;;;;;2.10;0.85;;;26.20;45.10;;;;;;5043447;28;20196;-50
2022/11/29 04:13:00;;;;;;;1.75;0.63;;;26.20;44.80;;;;;;5053884;28;20203;-53
2022/11/29 04:16:10;;;;;;;4.32;0.88;;;26.30;44.90;;;;;;5034996;28;20215;-51
2022/11/29 04:19:24;;;;;;;2.70;1.02;;;26.20;44.40;;;;;;5036521;28;20557;-49
2022/11/29 04:22:20;;;;;;;0.93;0.50;;;26.20;44.00;;;;;;5053591;28;20195;-50
2022/11/29 04:25:19;;;;;;;1.15;0.63;;;26.30;43.80;;;;;;5053340;28;20252;-49
2022/11/29 04:28:22;;;;;;;1.10;0.70;;;26.30;43.80;;;;;;5053735;28;20202;-52
2022/11/29 04:31:01;;;;;;;1.58;0.70;;;26.30;43.50;;;;;;5053717;28;20199;-51
2022/11/29 04:34:02;;;;;;;1.83;0.70;;;26.20;44.10;;;;;;5053095;28;20226;-51
2022/11/29 04:37:04;;;;;;;0.80;0.60;;;26.30;44.30;;;;;;5035897;28;20215;-51
2022/11/29 04:40:11;;;;;;;2.33;0.77;;;26.30;44.10;;;;;;5047690;28;20639;-51
2022/11/29 04:43:02;;;;;;;1.58;0.68;;;26.30;44.00;;;;;;5047678;28;20557;-51
2022/11/29 04:46:04;;;;;;;2.17;0.70;;;26.40;44.00;;;;;;5052839;28;20219;-51
2022/11/29 04:49:18;;;;;;;1.52;0.60;;;26.40;43.90;;;;;;5052568;28;20351;-50
2022/11/29 04:52:16;;;;;;;0.85;0.60;;;26.40;43.80;;;;;;5064089;28;20217;-51
2022/11/29 04:54:53;;;;;;;1.33;0.57;;;26.40;43.80;;;;;;5049677;28;20302;-53
2022/11/29 04:57:33;;;;;;;1.08;0.60;;;26.50;43.50;;;;;;5052027;28;20224;-51
2022/11/29 05:00:09;;;;;;;1.33;0.63;;;26.50;43.50;;;;;;5052750;28;20199;-50
2022/11/29 05:02:50;;;;;;;1.65;0.60;;;26.50;43.10;;;;;;5053509;28;20240;-52
2022/11/29 05:05:35;;;;;;;1.13;0.70;;;26.50;43.00;;;;;;5052179;28;20216;-50
2022/11/29 05:08:25;;;;;;;2.63;0.80;;;26.50;43.40;;;;;;5052263;28;20202;-53
2022/11/29 05:11:02;;;;;;;2.72;0.80;;;26.50;43.60;;;;;;5054570;28;20190;-49
2022/11/29 05:13:40;;;;;;;2.10;0.70;;;26.50;43.70;;;;;;5032748;28;20223;-49
2022/11/29 05:16:27;;;;;;;1.13;0.50;;;26.50;43.70;;;;;;5033862;28;20707;-56
2022/11/29 05:19:20;;;;;;;1.20;0.52;;;26.50;43.70;;;;;;5052921;28;20522;-51
2022/11/29 05:22:02;;;;;;;1.55;0.50;;;26.50;43.80;;;;;;5053036;28;20195;-50
2022/11/29 05:24:48;;;;;;;0.68;0.47;;;26.60;43.80;;;;;;5052483;28;20567;-50
2022/11/29 05:27:25;;;;;;;1.60;0.50;;;26.50;43.40;;;;;;5053503;28;20203;-55
2022/11/29 05:30:03;;;;;;;1.75;0.68;;;26.50;43.00;;;;;;5052486;28;20208;-50
2022/11/29 05:32:39;;;;;;;1.90;0.70;;;26.50;42.70;;;;;;5052905;28;20198;-51
2022/11/29 05:35:51;;;;;;;2.63;0.80;;;26.50;42.60;;;;;;5051544;28;20207;-55
2022/11/29 05:38:56;;;;;;;1.73;0.60;;;26.50;42.20;;;;;;5051893;28;20644;-52
2022/11/29 05:41:52;;;;;;;2.13;0.70;;;26.50;42.00;;;;;;5052612;28;20674;-49
2022/11/29 05:44:31;;;;;;;1.65;0.68;;;26.50;42.20;;;;;;5052617;28;20687;-56
2022/11/29 05:47:03;;;;;;;1.20;0.63;;;26.40;42.20;;;;;;5052924;28;20683;-49
2022/11/29 05:49:43;;;;;;;3.25;0.75;;;26.50;42.50;;;;;;5052283;28;20202;-56
2022/11/29 05:52:26;;;;;;;0.73;0.40;;;26.40;42.30;;;;;;5051908;28;20195;-49
2022/11/29 05:55:20;;;;;;;1.85;0.70;;;26.40;42.30;;;;;;5051749;28;20234;-52
2022/11/29 05:57:58;;;;;;;0.85;0.47;;;26.40;42.30;;;;;;5051834;28;20204;-49
2022/11/29 06:00:34;;;;;;;3.33;0.80;;;26.40;42.20;;;;;;5051983;28;20210;-50
2022/11/29 06:03:14;;;;;;;2.88;0.80;;;26.40;42.30;;;;;;5051787;28;20675;-53
2022/11/29 06:05:51;;;;;;;2.83;0.88;;;26.40;42.00;;;;;;5051589;28;20211;-53
2022/11/29 06:08:34;;;;;;;1.60;0.77;;;26.30;41.80;;;;;;5051802;28;20195;-54
2022/11/29 06:11:13;;;;;;;2.92;0.77;;;26.30;41.60;;;;;;5051745;28;20198;-53
2022/11/29 06:13:56;;;;;;;1.67;0.70;;;26.30;41.60;;;;;;5051220;28;20219;-49
2022/11/29 06:16:57;;;;;;;1.65;0.60;;;26.30;41.50;;;;;;5051504;28;20234;-55
2022/11/29 06:19:52;;;;;;;3.22;0.98;;;26.20;41.30;;;;;;5051667;28;20611;-52
2022/11/29 06:22:49;;;;;;;1.38;0.50;;;26.20;41.50;;;;;;5051683;28;20210;-54
2022/11/29 06:25:34;;;;;;;2.17;0.90;;;26.20;41.50;;;;;;5051572;28;20743;-57
2022/11/29 06:28:23;;;;;;;2.38;0.98;;;26.20;41.70;;;;;;5051627;28;20199;-53
2022/11/29 06:31:02;;;;;;;1.10;0.70;;;26.20;41.70;;;;;;5051859;28;20656;-55
2022/11/29 06:33:41;;;;;;;1.92;0.70;;;26.20;41.80;;;;;;5051571;28;20215;-50
2022/11/29 06:36:18;;;;;;;1.30;0.52;;;26.20;41.80;;;;;;5051727;28;20560;-54
2022/11/29 06:38:52;;;;;;;1.38;0.77;;;26.10;41.70;;;;;;5051356;28;20690;-49
2022/11/29 06:41:26;;;;;;;3.20;0.80;;;26.20;41.80;;;;;;5051390;28;20210;-52
2022/11/29 06:43:57;;;;;;;2.00;0.80;;;26.10;41.60;;;;;;5051444;28;20702;-59
2022/11/29 06:46:45;;;;;;;2.35;0.60;;;26.10;41.60;;;;;;5051909;28;20674;-55
2022/11/29 06:49:23;;;;;;;1.80;0.75;;;26.10;41.50;;;;;;5051408;28;20203;-55
2022/11/29 06:52:06;;;;;;;2.60;1.10;;;26.10;41.60;;;;;;5050876;28;20670;-59
2022/11/29 06:54:54;;;;;;;1.48;0.80;;;26.00;41.40;;;;;;5066263;28;20221;-59
2022/11/29 06:57:38;;;;;;;1.65;0.80;;;26.00;41.40;;;;;;5070263;28;20218;-57
2022/11/29 07:00:17;;;;;;;1.48;0.80;;;26.00;41.50;;;;;;5059951;28;20211;-58
2022/11/29 07:03:16;;;;;;;1.23;0.70;;;25.90;41.50;;;;;;5050882;28;20200;-56
2022/11/29 07:05:48;;;;;;;2.50;0.98;;;25.90;41.60;;;;;;5050967;28;20611;-57
2022/11/29 07:08:22;;;;;;;1.02;0.70;;;25.90;41.70;;;;;;5050721;28;20203;-58
2022/11/29 07:10:55;;;;;;;2.03;0.80;;;25.90;41.80;;;;;;5051296;28;20199;-58
2022/11/29 07:13:28;;;;;;;0.93;0.70;;;25.90;41.80;;;;;;5050718;28;20219;-58
2022/11/29 07:16:13;;;;;;;1.70;0.70;;;25.90;41.70;;;;;;5050968;28;20204;-57
2022/11/29 07:18:49;;;;;;;1.83;0.88;;;25.90;41.60;;;;;;5051157;28;20670;-55
2022/11/29 07:21:25;;;;;;;1.98;0.70;;;25.90;41.80;;;;;;5051313;28;20197;-58
2022/11/29 07:24:06;;;;;;;1.67;0.70;;;25.80;41.60;;;;;;5050830;28;20212;-58
2022/11/29 07:26:44;;;;;;;1.30;0.80;;;25.80;41.60;;;;;;5052871;28;20199;-58
2022/11/29 07:29:25;;;;;;;1.67;0.73;;;25.80;41.60;;;;;;5051200;28;20203;-58
2022/11/29 07:32:08;;;;;;;1.40;0.63;;;25.80;41.60;;;;;;5051218;28;20192;-58
2022/11/29 07:34:49;;;;;;;1.73;0.75;;;25.70;41.50;;;;;;5053409;28;20694;-56
2022/11/29 07:37:28;;;;;;;1.00;0.70;;;25.70;41.60;;;;;;5054905;28;20683;-54
2022/11/29 07:40:06;;;;;;;1.92;0.68;;;25.70;41.70;;;;;;5054574;28;20195;-58
2022/11/29 07:42:44;;;;;;;1.58;0.63;;;25.70;41.80;;;;;;5055072;28;20218;-58
2022/11/29 07:45:25;;;;;;;1.00;0.55;;;25.70;41.80;;;;;;5054494;28;20251;-57
2022/11/29 07:47:57;;;;;;;1.30;0.82;;;25.60;41.90;;;;;;5054469;28;20206;-58
2022/11/29 07:50:29;;;;;;;2.30;0.65;;;25.60;41.70;;;;;;5054488;28;20191;-59
2022/11/29 07:53:01;;;;;;;1.55;0.70;;;25.60;41.70;;;;;;5054441;28;20191;-58
2022/11/29 07:55:33;;;;;;;1.58;0.60;;;25.60;41.80;;;;;;5054323;28;20195;-58
2022/11/29 07:58:04;;;;;;;1.08;0.70;;;25.60;41.80;;;;;;5054299;28;20220;-58
2022/11/29 08:00:37;;;;;;;1.27;0.55;;;25.60;41.80;;;;;;5054474;28;20554;-58
2022/11/29 08:03:08;;;;;;;2.33;0.60;;;25.50;41.80;;;;;;5054504;28;20199;-58
2022/11/29 08:05:39;;;;;;;1.50;0.60;;;25.50;41.90;;;;;;5054198;28;20196;-56
2022/11/29 08:08:10;;;;;;;1.20;0.57;;;25.50;41.80;;;;;;5053662;28;20199;-57
2022/11/29 08:10:41;;;;;;;3.47;0.70;;;25.50;41.90;;;;;;5053577;28;20666;-58
2022/11/29 08:13:12;;;;;;;1.42;0.70;;;25.50;42.00;;;;;;5053962;28;20652;-58
2022/11/29 08:15:49;;;;;;;1.05;0.70;;;25.50;42.00;;;;;;5054230;28;20206;-58
2022/11/29 08:18:19;;;;;;;1.20;0.60;;;25.40;42.00;;;;;;5054149;28;20238;-58
2022/11/29 08:20:50;;;;;;;1.00;0.70;;;25.40;42.00;;;;;;5053847;28;20222;-59
2022/11/29 08:23:21;;;;;;;1.75;0.60;;;25.30;42.00;;;;;;5053830;28;20216;-58
2022/11/29 08:25:51;;;;;;;1.15;0.60;;;25.40;42.00;;;;;;5054000;28;20554;-57
2022/11/29 08:28:22;;;;;;;3.00;0.70;;;25.30;42.00;;;;;;5053736;28;20210;-58
2022/11/29 08:31:03;;;;;;;1.08;0.60;;;25.30;42.00;;;;;;5053939;28;20702;-55
2022/11/29 08:33:35;;;;;;;1.55;0.63;;;25.30;42.10;;;;;;5053992;28;20219;-58
2022/11/29 08:36:10;;;;;;;1.55;0.68;;;25.30;42.10;;;;;;5053955;28;20198;-55
2022/11/29 08:38:41;;;;;;;1.55;0.70;;;25.30;42.10;;;;;;5054342;28;20199;-59
2022/11/29 08:41:13;;;;;;;1.98;0.60;;;25.30;42.10;;;;;;5053709;28;20196;-52
2022/11/29 08:43:44;;;;;;;0.82;0.65;;;25.20;42.20;;;;;;5054286;28;20590;-56
2022/11/29 08:46:16;;;;;;;0.90;0.60;;;25.20;42.20;;;;;;5042018;28;20222;-58
2022/11/29 08:48:47;;;;;;;1.83;0.73;;;25.20;42.20;;;;;;5049903;28;20656;-57
2022/11/29 08:51:18;;;;;;;1.35;0.52;;;25.10;42.20;;;;;;5053725;28;20679;-56
2022/11/29 08:53:50;;;;;;;1.02;0.40;;;25.10;42.30;;;;;;5052662;28;20215;-58
2022/11/29 08:56:21;;;;;;;1.48;0.65;;;25.10;42.30;;;;;;5052376;28;20242;-51
2022/11/29 08:58:52;;;;;;;1.05;0.60;;;25.10;42.30;;;;;;5055561;28;20199;-50
2022/11/29 09:01:25;;;;;;;1.15;0.57;;;25.10;42.30;;;;;;5052638;28;20191;-53
2022/11/29 09:04:01;;;;;;;2.05;0.75;;;25.10;42.30;;;;;;5052477;28;20542;-49
2022/11/29 09:06:34;;;;;;;0.52;0.40;;;25.10;42.30;;;;;;5051743;28;20187;-57
2022/11/29 09:09:05;;;;;;;1.73;0.73;;;25.00;42.30;;;;;;5052058;28;20210;-57
2022/11/29 09:11:37;;;;;;;0.90;0.40;;;25.00;42.40;;;;;;5052362;28;20206;-58
2022/11/29 09:14:09;;;;;;;2.38;0.75;;;25.00;42.40;;;;;;5053247;28;20748;-56
2022/11/29 09:16:41;;;;;;;0.95;0.50;;;24.90;42.50;;;;;;5052261;28;20218;-59
2022/11/29 09:19:15;;;;;;;1.13;0.63;;;24.90;42.50;;;;;;5052561;28;20195;-56
2022/11/29 09:21:46;;;;;;;1.00;0.52;;;24.90;42.50;;;;;;5066437;28;20571;-52
2022/11/29 09:24:17;;;;;;;1.52;0.52;;;24.90;42.60;;;;;;5071525;28;20222;-57
2022/11/29 09:26:51;;;;;;;1.30;0.60;;;24.90;42.60;;;;;;5071487;28;20298;-58
2022/11/29 09:29:22;;;;;;;1.15;0.60;;;24.90;42.70;;;;;;5056510;28;20199;-58
2022/11/29 09:31:54;;;;;;;1.75;0.70;;;24.80;42.70;;;;;;5052996;28;20214;-54
2022/11/29 09:34:25;;;;;;;1.38;0.55;;;24.80;42.70;;;;;;5051309;28;20218;-58
2022/11/29 09:36:56;;;;;;;0.98;0.65;;;24.80;42.70;;;;;;5052073;28;20576;-57
2022/11/29 09:39:27;;;;;;;0.90;0.60;;;24.80;42.70;;;;;;5052186;28;20199;-56
2022/11/29 09:42:12;;;;;;;0.85;0.50;;;24.80;42.70;;;;;;5052246;28;20191;-54
2022/11/29 09:44:58;;;;;;;1.08;0.50;;;24.70;42.70;;;;;;5050980;28;20215;-56
2022/11/29 09:47:51;;;;;;;1.17;0.55;;;24.70;42.70;;;;;;5051932;28;20299;-54
2022/11/29 09:50:33;;;;;;;1.15;0.50;;;24.70;42.80;;;;;;5050913;28;20548;-55
2022/11/29 09:53:36;;;;;;;0.93;0.60;;;24.70;42.90;;;;;;5052126;28;20268;-58
2022/11/29 09:56:24;;;;;;;1.20;0.55;;;24.70;43.00;;;;;;5050315;28;20631;-52
2022/11/29 09:59:00;;;;;;;1.50;0.60;;;24.60;42.90;;;;;;5051037;28;20624;-58
2022/11/29 10:01:33;;;;;;;1.92;0.60;;;24.60;42.90;;;;;;5045174;28;20596;-53
2022/11/29 10:04:11;;;;;;;0.95;0.70;;;24.60;43.00;;;;;;5045600;28;20222;-56
2022/11/29 10:06:44;;;;;;;1.30;0.63;;;24.60;43.00;;;;;;5051589;28;20195;-58
2022/11/29 10:09:22;;;;;;;0.45;0.38;;;24.50;43.00;;;;;;5051536;28;20670;-51
2022/11/29 10:12:04;;;;;;;1.08;0.63;;;24.50;43.00;;;;;;5051616;28;20198;-58
2022/11/29 10:14:40;;;;;;;1.02;0.60;;;24.50;43.00;;;;;;5051546;28;20220;-58
2022/11/29 10:17:31;;;;;;;1.15;0.50;;;24.50;43.00;;;;;;5051010;28;20215;-58
2022/11/29 10:20:12;;;;;;;0.70;0.50;;;24.50;43.10;;;;;;5051522;28;20214;-57
2022/11/29 10:22:52;;;;;;;1.58;0.60;;;24.50;43.10;;;;;;5050762;28;20551;-50
2022/11/29 10:25:27;;;;;;;1.38;0.40;;;24.50;43.20;;;;;;5050690;28;20778;-55
2022/11/29 10:27:57;;;;;;;1.25;0.52;;;24.40;43.20;;;;;;5051158;28;20207;-56
2022/11/29 10:30:33;;;;;;;0.80;0.50;;;24.40;43.30;;;;;;5051046;28;20207;-59
2022/11/29 10:33:03;;;;;;;0.68;0.40;;;24.40;43.30;;;;;;5051392;28;20201;-58
2022/11/29 10:35:36;;;;;;;1.00;0.70;;;24.30;43.30;;;;;;5050575;28;20207;-53
2022/11/29 10:38:07;;;;;;;1.60;0.60;;;24.30;43.30;;;;;;5050710;28;20219;-59
2022/11/29 10:40:39;;;;;;;0.82;0.40;;;24.30;43.30;;;;;;5057519;28;20191;-58
2022/11/29 10:43:10;;;;;;;1.42;0.60;;;24.30;43.40;;;;;;5051395;28;20651;-57
2022/11/29 10:45:49;;;;;;;1.00;0.60;;;24.30;43.40;;;;;;5038338;28;20196;-56
2022/11/29 10:48:21;;;;;;;0.77;0.50;;;24.20;43.30;;;;;;5050544;28;20198;-58
2022/11/29 10:50:54;;;;;;;0.80;0.63;;;24.20;43.30;;;;;;5059129;28;20197;-57
2022/11/29 10:53:27;;;;;;;0.95;0.50;;;24.20;43.30;;;;;;5071259;28;20223;-58
2022/11/29 10:56:02;;;;;;;0.80;0.40;;;24.20;43.30;;;;;;5071191;28;20535;-55
2022/11/29 10:58:33;;;;;;;1.65;0.70;;;24.20;43.30;;;;;;5071196;28;20229;-58
2022/11/29 11:01:05;;;;;;;0.40;0.40;;;24.20;43.40;;;;;;5053057;28;20208;-58
2022/11/29 11:03:41;;;;;;;1.73;0.50;;;24.20;43.50;;;;;;5051338;28;20214;-55
2022/11/29 11:06:15;;;;;;;0.80;0.50;;;24.20;43.50;;;;;;5051188;28;20192;-55
2022/11/29 11:08:49;;;;;;;1.30;0.60;;;24.10;43.50;;;;;;5050060;28;20203;-57
2022/11/29 11:11:29;;;;;;;0.50;0.50;;;24.10;43.60;;;;;;5051003;28;20257;-56
2022/11/29 11:14:03;;;;;;;0.85;0.50;;;24.00;43.60;;;;;;5050930;28;20222;-55
2022/11/29 11:16:34;;;;;;;0.65;0.40;;;24.00;43.60;;;;;;5051139;28;20597;-53
2022/11/29 11:19:31;;;;;;;0.88;0.40;;;24.00;43.60;;;;;;5051439;28;20234;-57
2022/11/29 11:22:05;;;;;;;0.90;0.50;;;24.00;43.70;;;;;;5050854;28;20203;-55
2022/11/29 11:24:38;;;;;;;0.90;0.40;;;24.00;43.70;;;;;;5050576;28;20219;-51
2022/11/29 11:27:09;;;;;;;1.17;0.40;;;23.90;43.60;;;;;;5051010;28;20207;-58
2022/11/29 11:29:42;;;;;;;1.30;0.50;;;23.90;43.70;;;;;;5050909;28;20196;-56
2022/11/29 11:32:19;;;;;;;1.80;0.47;;;23.90;43.70;;;;;;5051369;28;20198;-57
2022/11/29 11:34:55;;;;;;;1.00;0.50;;;23.90;43.70;;;;;;5050669;28;20709;-56
2022/11/29 11:37:30;;;;;;;0.95;0.57;;;23.90;43.70;;;;;;5053313;28;20215;-55
2022/11/29 11:40:02;;;;;;;0.63;0.50;;;23.80;43.70;;;;;;5050620;28;20199;-53
2022/11/29 11:42:39;;;;;;;0.75;0.52;;;23.80;43.80;;;;;;5050845;28;20203;-56
2022/11/29 11:45:35;;;;;;;0.50;0.30;;;23.80;43.90;;;;;;5050733;28;20217;-59
2022/11/29 11:48:14;;;;;;;0.68;0.40;;;23.80;43.90;;;;;;5050435;28;20595;-57
2022/11/29 11:50:47;;;;;;;0.40;0.38;;;23.70;43.90;;;;;;5050513;28;20651;-51
2022/11/29 11:53:28;;;;;;;1.70;0.60;;;23.70;44.00;;;;;;5050649;28;20192;-57
2022/11/29 11:56:02;;;;;;;0.75;0.60;;;23.70;44.00;;;;;;5051028;28;20206;-55
2022/11/29 11:58:35;;;;;;;0.70;0.50;;;23.60;44.00;;;;;;5050841;28;20227;-55
2022/11/29 12:01:18;;;;;;;0.50;0.38;;;23.60;44.00;;;;;;5050786;28;20331;-56
2022/11/29 12:03:56;;;;;;;1.33;0.50;;;23.60;44.00;;;;;;5050630;28;20219;-56
2022/11/29 12:06:39;;;;;;;0.47;0.45;;;23.60;44.00;;;;;;5050519;28;20206;-58
2022/11/29 12:09:21;;;;;;;0.60;0.47;;;23.50;44.00;;;;;;5050664;28;20200;-56
2022/11/29 12:12:00;;;;;;;1.27;0.50;;;23.50;44.00;;;;;;5050145;28;20195;-58
2022/11/29 12:14:39;;;;;;;0.57;0.28;;;23.50;44.00;;;;;;5050158;28;20289;-57
2022/11/29 12:17:18;;;;;;;0.40;0.40;;;23.50;44.10;;;;;;5050819;28;20202;-50
2022/11/29 12:20:05;;;;;;;0.32;0.22;;;23.50;44.20;;;;;;5049757;28;20195;-52
2022/11/29 12:22:43;;;;;;;0.52;0.30;;;23.40;44.20;;;;;;5040954;28;20200;-59
2022/11/29 12:25:20;;;;;;;1.10;0.52;;;23.40;44.20;;;;;;5053918;28;20222;-54
2022/11/29 12:27:52;;;;;;;0.70;0.57;;;23.40;44.30;;;;;;5055514;28;20670;-57
2022/11/29 12:30:23;;;;;;;0.68;0.30;;;23.40;44.30;;;;;;5054234;28;20203;-58
2022/11/29 12:33:18;;;;;;;0.40;0.30;;;23.30;44.30;;;;;;5053828;28;20214;-55
2022/11/29 12:36:10;;;;;;;0.57;0.47;;;23.30;44.30;;;;;;5054707;28;20199;-57
2022/11/29 12:38:52;;;;;;;0.75;0.38;;;23.30;44.30;;;;;;5053769;28;20231;-55
2022/11/29 12:41:36;;;;;;;0.90;0.50;;;23.30;44.30;;;;;;5053918;28;20196;-57
2022/11/29 12:44:17;;;;;;;0.70;0.40;;;23.30;44.40;;;;;;5056330;28;20226;-58
2022/11/29 12:46:52;;;;;;;0.93;0.50;;;23.30;44.40;;;;;;5054348;28;20203;-58
2022/11/29 12:49:30;;;;;;;0.50;0.38;;;23.20;44.30;;;;;;5053952;28;20195;-57
2022/11/29 12:52:09;;;;;;;0.45;0.40;;;23.20;44.30;;;;;;5053973;28;20202;-59
2022/11/29 12:54:54;;;;;;;0.85;0.50;;;23.20;44.40;;;;;;5054417;28;20585;-55
2022/11/29 12:57:32;;;;;;;0.55;0.43;;;23.20;44.50;;;;;;5053452;28;20206;-56
2022/11/29 13:00:13;;;;;;;1.00;0.30;;;23.10;44.50;;;;;;5053615;28;20210;-56
2022/11/29 13:03:03;;;;;;;0.95;0.50;;;23.10;44.50;;;;;;5053744;28;20199;-58
2022/11/29 13:05:51;;;;;;;0.90;0.43;;;23.00;44.50;;;;;;5053921;28;20195;-54
2022/11/29 13:08:45;;;;;;;0.93;0.50;;;23.00;44.60;;;;;;5053312;28;20195;-60
2022/11/29 13:11:21;;;;;;;0.80;0.50;;;23.00;44.60;;;;;;5053575;28;20203;-58
2022/11/29 13:14:03;;;;;;;0.60;0.40;;;23.00;44.60;;;;;;5053678;28;20215;-59
2022/11/29 13:16:42;;;;;;;0.38;0.38;;;23.00;44.60;;;;;;5053393;28;20199;-58
2022/11/29 13:19:20;;;;;;;0.88;0.50;;;22.90;44.60;;;;;;5053498;28;20219;-57
2022/11/29 13:22:00;;;;;;;0.60;0.40;;;23.00;44.70;;;;;;5053297;28;20195;-59
2022/11/29 13:24:36;;;;;;;0.30;0.30;;;22.90;44.60;;;;;;5053201;28;20211;-58
2022/11/29 13:27:08;;;;;;;0.73;0.40;;;22.90;44.60;;;;;;5053088;28;20211;-59
2022/11/29 13:29:40;;;;;;;1.70;0.50;;;22.90;44.60;;;;;;5053119;28;20206;-59
2022/11/29 13:32:24;;;;;;;0.93;0.55;;;22.80;44.70;;;;;;5052098;28;20195;-58
2022/11/29 13:34:59;;;;;;;0.47;0.38;;;22.80;44.70;;;;;;5053284;28;20223;-59
2022/11/29 13:37:38;;;;;;;0.73;0.40;;;22.80;44.80;;;;;;5052611;28;20209;-58
2022/11/29 13:40:23;;;;;;;0.68;0.30;;;22.80;44.80;;;;;;5052763;28;20203;-58
2022/11/29 13:43:02;;;;;;;0.73;0.32;;;22.80;44.80;;;;;;5052744;28;20199;-58
2022/11/29 13:45:42;;;;;;;0.82;0.50;;;22.80;44.90;;;;;;5052465;28;20200;-59
2022/11/29 13:48:36;;;;;;;0.65;0.50;;;22.70;44.80;;;;;;5052405;28;20206;-57
2022/11/29 13:51:28;;;;;;;0.45;0.40;;;22.70;44.90;;;;;;5052752;28;20658;-59